sensor_id;sensor_type;location;lat;lon;timestamp;P1;durP1;ratioP1;P2;durP2;ratioP2
18592;SDS011;9426;54.118;17.948;2023-11-19T00:03:43;52.13;;;26.73;;
18592;SDS011;9426;54.118;17.948;2023-11-19T00:09:09;57.70;;;27.60;;
18592;SDS011;9426;54.118;17.948;2023-11-19T00:14:33;53.73;;;26.23;;
18592;SDS011;9426;54.118;17.948;2023-11-19T00:19:57;55.30;;;25.67;;
18592;SDS011;9426;54.118;17.948;2023-11-19T00:25:22;53.30;;;24.43;;
18592;SDS011;9426;54.118;17.948;2023-11-19T00:30:46;55.67;;;26.43;;
18592;SDS011;9426;54.118;17.948;2023-11-19T00:36:10;59.07;;;27.27;;
18592;SDS011;9426;54.118;17.948;2023-11-19T00:41:35;63.23;;;28.07;;
18592;SDS011;9426;54.118;17.948;2023-11-19T00:46:59;66.60;;;29.47;;
18592;SDS011;9426;54.118;17.948;2023-11-19T00:52:23;59.70;;;26.90;;
18592;SDS011;9426;54.118;17.948;2023-11-19T00:57:47;62.30;;;27.60;;
18592;SDS011;9426;54.118;17.948;2023-11-19T01:03:11;66.47;;;28.23;;
18592;SDS011;9426;54.118;17.948;2023-11-19T01:08:36;63.90;;;27.47;;
18592;SDS011;9426;54.118;17.948;2023-11-19T01:14:02;59.67;;;28.03;;
18592;SDS011;9426;54.118;17.948;2023-11-19T01:19:27;56.50;;;24.73;;
18592;SDS011;9426;54.118;17.948;2023-11-19T01:24:53;57.20;;;26.23;;
18592;SDS011;9426;54.118;17.948;2023-11-19T01:30:18;55.73;;;25.70;;
18592;SDS011;9426;54.118;17.948;2023-11-19T01:35:44;59.93;;;25.80;;
18592;SDS011;9426;54.118;17.948;2023-11-19T01:41:08;53.83;;;22.93;;
18592;SDS011;9426;54.118;17.948;2023-11-19T01:46:33;56.33;;;24.67;;
18592;SDS011;9426;54.118;17.948;2023-11-19T01:51:58;49.80;;;23.60;;
18592;SDS011;9426;54.118;17.948;2023-11-19T01:57:22;52.70;;;23.90;;
18592;SDS011;9426;54.118;17.948;2023-11-19T02:02:47;57.63;;;26.43;;
18592;SDS011;9426;54.118;17.948;2023-11-19T02:08:13;52.90;;;25.80;;
18592;SDS011;9426;54.118;17.948;2023-11-19T02:13:37;52.03;;;24.80;;
18592;SDS011;9426;54.118;17.948;2023-11-19T02:19:04;61.10;;;26.77;;
18592;SDS011;9426;54.118;17.948;2023-11-19T02:24:29;56.27;;;25.30;;
18592;SDS011;9426;54.118;17.948;2023-11-19T02:29:56;59.37;;;26.57;;
18592;SDS011;9426;54.118;17.948;2023-11-19T02:35:20;55.20;;;26.87;;
18592;SDS011;9426;54.118;17.948;2023-11-19T02:40:44;50.40;;;24.63;;
18592;SDS011;9426;54.118;17.948;2023-11-19T02:46:09;50.40;;;23.97;;
18592;SDS011;9426;54.118;17.948;2023-11-19T02:51:35;50.67;;;23.93;;
18592;SDS011;9426;54.118;17.948;2023-11-19T02:56:59;46.23;;;23.23;;
18592;SDS011;9426;54.118;17.948;2023-11-19T03:02:26;48.47;;;22.70;;
18592;SDS011;9426;54.118;17.948;2023-11-19T03:07:55;46.87;;;22.53;;
18592;SDS011;9426;54.118;17.948;2023-11-19T03:13:19;47.03;;;22.33;;
18592;SDS011;9426;54.118;17.948;2023-11-19T03:18:44;49.33;;;22.60;;
18592;SDS011;9426;54.118;17.948;2023-11-19T03:24:08;43.17;;;21.83;;
18592;SDS011;9426;54.118;17.948;2023-11-19T03:29:32;45.17;;;22.87;;
18592;SDS011;9426;54.118;17.948;2023-11-19T03:34:57;45.07;;;21.23;;
18592;SDS011;9426;54.118;17.948;2023-11-19T03:40:21;40.37;;;19.67;;
18592;SDS011;9426;54.118;17.948;2023-11-19T03:45:47;40.93;;;20.37;;
18592;SDS011;9426;54.118;17.948;2023-11-19T03:51:12;39.20;;;20.40;;
18592;SDS011;9426;54.118;17.948;2023-11-19T03:56:36;41.70;;;20.73;;
18592;SDS011;9426;54.118;17.948;2023-11-19T04:02:00;41.03;;;20.37;;
18592;SDS011;9426;54.118;17.948;2023-11-19T04:07:25;45.30;;;22.77;;
18592;SDS011;9426;54.118;17.948;2023-11-19T04:12:48;43.63;;;21.27;;
18592;SDS011;9426;54.118;17.948;2023-11-19T04:18:12;42.93;;;21.13;;
18592;SDS011;9426;54.118;17.948;2023-11-19T04:23:37;37.67;;;19.43;;
18592;SDS011;9426;54.118;17.948;2023-11-19T04:29:00;42.37;;;20.30;;
18592;SDS011;9426;54.118;17.948;2023-11-19T04:34:24;38.27;;;19.37;;
18592;SDS011;9426;54.118;17.948;2023-11-19T04:39:49;41.53;;;20.23;;
18592;SDS011;9426;54.118;17.948;2023-11-19T04:45:13;37.20;;;18.63;;
18592;SDS011;9426;54.118;17.948;2023-11-19T04:50:37;41.00;;;19.03;;
18592;SDS011;9426;54.118;17.948;2023-11-19T04:56:02;35.93;;;18.23;;
18592;SDS011;9426;54.118;17.948;2023-11-19T05:01:30;37.60;;;18.67;;
18592;SDS011;9426;54.118;17.948;2023-11-19T05:06:54;34.77;;;18.00;;
18592;SDS011;9426;54.118;17.948;2023-11-19T05:12:19;35.67;;;18.07;;
18592;SDS011;9426;54.118;17.948;2023-11-19T05:17:42;35.00;;;17.17;;
18592;SDS011;9426;54.118;17.948;2023-11-19T05:23:07;35.37;;;17.23;;
18592;SDS011;9426;54.118;17.948;2023-11-19T05:28:42;34.97;;;17.13;;
18592;SDS011;9426;54.118;17.948;2023-11-19T05:34:05;31.83;;;17.77;;
18592;SDS011;9426;54.118;17.948;2023-11-19T05:39:29;31.53;;;16.90;;
18592;SDS011;9426;54.118;17.948;2023-11-19T05:44:54;32.87;;;16.37;;
18592;SDS011;9426;54.118;17.948;2023-11-19T05:50:19;33.57;;;17.23;;
18592;SDS011;9426;54.118;17.948;2023-11-19T05:55:42;29.87;;;15.63;;
18592;SDS011;9426;54.118;17.948;2023-11-19T06:01:09;32.90;;;16.03;;
18592;SDS011;9426;54.118;17.948;2023-11-19T06:06:32;35.87;;;16.60;;
18592;SDS011;9426;54.118;17.948;2023-11-19T06:11:56;31.73;;;15.47;;
18592;SDS011;9426;54.118;17.948;2023-11-19T06:17:21;31.30;;;15.63;;
18592;SDS011;9426;54.118;17.948;2023-11-19T06:22:45;32.63;;;16.33;;
18592;SDS011;9426;54.118;17.948;2023-11-19T06:28:08;29.97;;;15.40;;
18592;SDS011;9426;54.118;17.948;2023-11-19T06:33:33;29.97;;;14.27;;
18592;SDS011;9426;54.118;17.948;2023-11-19T06:38:57;27.47;;;14.93;;
18592;SDS011;9426;54.118;17.948;2023-11-19T06:44:20;28.60;;;15.43;;
18592;SDS011;9426;54.118;17.948;2023-11-19T06:49:46;29.70;;;14.63;;
18592;SDS011;9426;54.118;17.948;2023-11-19T06:55:09;28.87;;;15.17;;
18592;SDS011;9426;54.118;17.948;2023-11-19T07:00:33;26.30;;;14.30;;
18592;SDS011;9426;54.118;17.948;2023-11-19T07:05:58;25.43;;;14.50;;
18592;SDS011;9426;54.118;17.948;2023-11-19T07:11:22;29.50;;;14.97;;
18592;SDS011;9426;54.118;17.948;2023-11-19T07:16:45;30.20;;;15.20;;
18592;SDS011;9426;54.118;17.948;2023-11-19T07:22:11;27.90;;;15.00;;
18592;SDS011;9426;54.118;17.948;2023-11-19T07:27:34;29.13;;;15.40;;
18592;SDS011;9426;54.118;17.948;2023-11-19T07:32:58;31.30;;;16.47;;
18592;SDS011;9426;54.118;17.948;2023-11-19T07:38:23;29.13;;;15.23;;
18592;SDS011;9426;54.118;17.948;2023-11-19T07:43:46;29.67;;;16.07;;
18592;SDS011;9426;54.118;17.948;2023-11-19T07:49:10;35.00;;;16.30;;
18592;SDS011;9426;54.118;17.948;2023-11-19T07:54:36;32.63;;;17.83;;
18592;SDS011;9426;54.118;17.948;2023-11-19T08:00:00;34.77;;;18.07;;
18592;SDS011;9426;54.118;17.948;2023-11-19T08:05:32;32.87;;;17.37;;
18592;SDS011;9426;54.118;17.948;2023-11-19T08:10:57;36.67;;;18.90;;
18592;SDS011;9426;54.118;17.948;2023-11-19T08:16:21;38.90;;;20.10;;
18592;SDS011;9426;54.118;17.948;2023-11-19T08:21:45;37.37;;;18.70;;
18592;SDS011;9426;54.118;17.948;2023-11-19T08:27:10;37.60;;;19.60;;
18592;SDS011;9426;54.118;17.948;2023-11-19T08:32:33;37.50;;;19.40;;
18592;SDS011;9426;54.118;17.948;2023-11-19T08:37:57;38.90;;;19.50;;
18592;SDS011;9426;54.118;17.948;2023-11-19T08:43:22;38.77;;;20.50;;
18592;SDS011;9426;54.118;17.948;2023-11-19T08:48:47;38.93;;;21.03;;
18592;SDS011;9426;54.118;17.948;2023-11-19T08:54:10;40.60;;;21.37;;
18592;SDS011;9426;54.118;17.948;2023-11-19T08:59:36;41.33;;;21.83;;
18592;SDS011;9426;54.118;17.948;2023-11-19T09:05:00;39.13;;;21.10;;
18592;SDS011;9426;54.118;17.948;2023-11-19T09:10:23;38.93;;;21.13;;
18592;SDS011;9426;54.118;17.948;2023-11-19T09:15:49;43.27;;;20.87;;
18592;SDS011;9426;54.118;17.948;2023-11-19T09:21:13;36.43;;;19.57;;
18592;SDS011;9426;54.118;17.948;2023-11-19T09:26:37;35.77;;;19.90;;
18592;SDS011;9426;54.118;17.948;2023-11-19T09:32:04;34.43;;;18.57;;
18592;SDS011;9426;54.118;17.948;2023-11-19T09:37:29;36.97;;;19.70;;
18592;SDS011;9426;54.118;17.948;2023-11-19T09:42:52;36.37;;;19.67;;
18592;SDS011;9426;54.118;17.948;2023-11-19T09:48:18;36.13;;;19.13;;
18592;SDS011;9426;54.118;17.948;2023-11-19T09:53:41;38.13;;;18.27;;
18592;SDS011;9426;54.118;17.948;2023-11-19T09:59:05;39.23;;;20.30;;
18592;SDS011;9426;54.118;17.948;2023-11-19T10:04:30;39.00;;;20.43;;
18592;SDS011;9426;54.118;17.948;2023-11-19T10:09:56;38.57;;;20.33;;
18592;SDS011;9426;54.118;17.948;2023-11-19T10:15:20;41.40;;;20.53;;
18592;SDS011;9426;54.118;17.948;2023-11-19T10:20:45;50.17;;;23.67;;
18592;SDS011;9426;54.118;17.948;2023-11-19T10:26:09;42.77;;;21.53;;
18592;SDS011;9426;54.118;17.948;2023-11-19T10:31:32;42.40;;;23.10;;
18592;SDS011;9426;54.118;17.948;2023-11-19T10:36:58;45.60;;;23.23;;
18592;SDS011;9426;54.118;17.948;2023-11-19T10:42:21;44.40;;;22.40;;
18592;SDS011;9426;54.118;17.948;2023-11-19T10:47:45;43.97;;;22.90;;
18592;SDS011;9426;54.118;17.948;2023-11-19T10:53:12;44.10;;;22.27;;
18592;SDS011;9426;54.118;17.948;2023-11-19T10:58:38;49.00;;;24.27;;
18592;SDS011;9426;54.118;17.948;2023-11-19T11:04:04;47.33;;;25.27;;
18592;SDS011;9426;54.118;17.948;2023-11-19T11:09:30;50.60;;;25.70;;
18592;SDS011;9426;54.118;17.948;2023-11-19T11:14:55;47.77;;;24.10;;
18592;SDS011;9426;54.118;17.948;2023-11-19T11:20:19;48.33;;;25.47;;
18592;SDS011;9426;54.118;17.948;2023-11-19T11:25:46;52.87;;;25.60;;
18592;SDS011;9426;54.118;17.948;2023-11-19T11:31:18;52.27;;;26.40;;
18592;SDS011;9426;54.118;17.948;2023-11-19T11:36:51;59.13;;;27.17;;
18592;SDS011;9426;54.118;17.948;2023-11-19T11:48:10;57.27;;;28.03;;
18592;SDS011;9426;54.118;17.948;2023-11-19T11:53:33;60.33;;;28.57;;
18592;SDS011;9426;54.118;17.948;2023-11-19T11:58:58;58.23;;;27.33;;
18592;SDS011;9426;54.118;17.948;2023-11-19T12:04:27;60.20;;;30.20;;
18592;SDS011;9426;54.118;17.948;2023-11-19T12:09:53;54.43;;;26.80;;
18592;SDS011;9426;54.118;17.948;2023-11-19T12:15:16;58.80;;;27.83;;
18592;SDS011;9426;54.118;17.948;2023-11-19T12:20:43;68.37;;;30.57;;
18592;SDS011;9426;54.118;17.948;2023-11-19T12:26:06;68.00;;;31.50;;
18592;SDS011;9426;54.118;17.948;2023-11-19T12:31:30;67.07;;;31.47;;
18592;SDS011;9426;54.118;17.948;2023-11-19T12:36:55;82.93;;;36.20;;
18592;SDS011;9426;54.118;17.948;2023-11-19T12:42:19;76.67;;;31.40;;
18592;SDS011;9426;54.118;17.948;2023-11-19T12:47:42;105.07;;;42.73;;
18592;SDS011;9426;54.118;17.948;2023-11-19T12:53:09;69.13;;;32.30;;
18592;SDS011;9426;54.118;17.948;2023-11-19T12:58:33;72.37;;;32.07;;
18592;SDS011;9426;54.118;17.948;2023-11-19T13:03:57;69.80;;;31.80;;
18592;SDS011;9426;54.118;17.948;2023-11-19T13:09:23;70.17;;;31.03;;
18592;SDS011;9426;54.118;17.948;2023-11-19T13:14:46;74.83;;;32.73;;
18592;SDS011;9426;54.118;17.948;2023-11-19T13:20:11;71.20;;;32.47;;
18592;SDS011;9426;54.118;17.948;2023-11-19T13:25:37;63.63;;;29.33;;
18592;SDS011;9426;54.118;17.948;2023-11-19T13:31:00;65.67;;;30.43;;
18592;SDS011;9426;54.118;17.948;2023-11-19T13:36:24;75.10;;;31.87;;
18592;SDS011;9426;54.118;17.948;2023-11-19T13:41:49;72.40;;;31.97;;
18592;SDS011;9426;54.118;17.948;2023-11-19T13:47:13;74.43;;;32.93;;
18592;SDS011;9426;54.118;17.948;2023-11-19T13:52:36;69.23;;;31.77;;
18592;SDS011;9426;54.118;17.948;2023-11-19T13:58:02;75.70;;;33.43;;
18592;SDS011;9426;54.118;17.948;2023-11-19T14:03:26;71.83;;;31.67;;
18592;SDS011;9426;54.118;17.948;2023-11-19T14:08:50;68.50;;;29.77;;
18592;SDS011;9426;54.118;17.948;2023-11-19T14:14:15;65.97;;;29.30;;
18592;SDS011;9426;54.118;17.948;2023-11-19T14:19:38;65.57;;;30.47;;
18592;SDS011;9426;54.118;17.948;2023-11-19T14:25:02;69.10;;;30.10;;
18592;SDS011;9426;54.118;17.948;2023-11-19T14:30:27;68.27;;;30.53;;
18592;SDS011;9426;54.118;17.948;2023-11-19T14:35:51;72.47;;;31.43;;
18592;SDS011;9426;54.118;17.948;2023-11-19T14:41:15;62.03;;;29.50;;
18592;SDS011;9426;54.118;17.948;2023-11-19T14:46:40;66.10;;;28.30;;
18592;SDS011;9426;54.118;17.948;2023-11-19T14:52:04;71.00;;;31.43;;
18592;SDS011;9426;54.118;17.948;2023-11-19T14:57:30;67.10;;;29.97;;
18592;SDS011;9426;54.118;17.948;2023-11-19T15:02:55;66.97;;;29.80;;
18592;SDS011;9426;54.118;17.948;2023-11-19T15:08:19;64.27;;;27.57;;
18592;SDS011;9426;54.118;17.948;2023-11-19T15:13:42;70.37;;;31.13;;
18592;SDS011;9426;54.118;17.948;2023-11-19T15:19:08;71.37;;;30.27;;
18592;SDS011;9426;54.118;17.948;2023-11-19T15:24:31;68.90;;;30.10;;
18592;SDS011;9426;54.118;17.948;2023-11-19T15:29:55;67.50;;;29.77;;
18592;SDS011;9426;54.118;17.948;2023-11-19T15:35:21;75.13;;;31.80;;
18592;SDS011;9426;54.118;17.948;2023-11-19T15:40:44;67.57;;;29.97;;
18592;SDS011;9426;54.118;17.948;2023-11-19T15:46:08;71.27;;;30.83;;
18592;SDS011;9426;54.118;17.948;2023-11-19T15:51:34;63.07;;;27.83;;
18592;SDS011;9426;54.118;17.948;2023-11-19T15:56:58;71.23;;;31.03;;
18592;SDS011;9426;54.118;17.948;2023-11-19T16:02:22;64.63;;;29.87;;
18592;SDS011;9426;54.118;17.948;2023-11-19T16:07:47;64.53;;;27.70;;
18592;SDS011;9426;54.118;17.948;2023-11-19T16:13:11;67.63;;;28.87;;
18592;SDS011;9426;54.118;17.948;2023-11-19T16:18:34;110.13;;;36.93;;
18592;SDS011;9426;54.118;17.948;2023-11-19T16:23:59;83.50;;;31.27;;
18592;SDS011;9426;54.118;17.948;2023-11-19T16:29:23;68.50;;;29.80;;
18592;SDS011;9426;54.118;17.948;2023-11-19T16:34:47;81.27;;;35.07;;
18592;SDS011;9426;54.118;17.948;2023-11-19T16:40:12;55.37;;;26.17;;
18592;SDS011;9426;54.118;17.948;2023-11-19T16:45:37;53.80;;;25.07;;
18592;SDS011;9426;54.118;17.948;2023-11-19T16:51:07;55.73;;;25.53;;
18592;SDS011;9426;54.118;17.948;2023-11-19T16:56:36;60.23;;;27.77;;
18592;SDS011;9426;54.118;17.948;2023-11-19T17:01:59;54.17;;;25.37;;
18592;SDS011;9426;54.118;17.948;2023-11-19T17:07:23;62.27;;;28.33;;
18592;SDS011;9426;54.118;17.948;2023-11-19T17:12:48;59.17;;;26.80;;
18592;SDS011;9426;54.118;17.948;2023-11-19T17:18:11;62.50;;;30.77;;
18592;SDS011;9426;54.118;17.948;2023-11-19T17:23:37;53.23;;;26.47;;
18592;SDS011;9426;54.118;17.948;2023-11-19T17:29:02;55.10;;;27.70;;
18592;SDS011;9426;54.118;17.948;2023-11-19T17:34:26;54.50;;;26.93;;
18592;SDS011;9426;54.118;17.948;2023-11-19T17:39:50;53.67;;;26.10;;
18592;SDS011;9426;54.118;17.948;2023-11-19T17:45:15;61.13;;;28.63;;
18592;SDS011;9426;54.118;17.948;2023-11-19T17:50:39;57.40;;;28.53;;
18592;SDS011;9426;54.118;17.948;2023-11-19T17:56:03;56.70;;;26.63;;
18592;SDS011;9426;54.118;17.948;2023-11-19T18:01:28;46.87;;;23.93;;
18592;SDS011;9426;54.118;17.948;2023-11-19T18:06:51;54.57;;;26.90;;
18592;SDS011;9426;54.118;17.948;2023-11-19T18:12:15;71.70;;;34.20;;
18592;SDS011;9426;54.118;17.948;2023-11-19T18:17:40;57.17;;;28.47;;
18592;SDS011;9426;54.118;17.948;2023-11-19T18:23:04;58.00;;;29.67;;
18592;SDS011;9426;54.118;17.948;2023-11-19T18:28:28;50.73;;;26.17;;
18592;SDS011;9426;54.118;17.948;2023-11-19T18:33:53;53.30;;;25.60;;
18592;SDS011;9426;54.118;17.948;2023-11-19T18:39:16;55.43;;;27.73;;
18592;SDS011;9426;54.118;17.948;2023-11-19T18:44:39;44.90;;;23.17;;
18592;SDS011;9426;54.118;17.948;2023-11-19T18:50:05;46.93;;;25.20;;
18592;SDS011;9426;54.118;17.948;2023-11-19T18:55:29;46.67;;;24.30;;
18592;SDS011;9426;54.118;17.948;2023-11-19T19:00:53;47.97;;;24.70;;
18592;SDS011;9426;54.118;17.948;2023-11-19T19:06:19;50.87;;;25.87;;
18592;SDS011;9426;54.118;17.948;2023-11-19T19:11:43;42.00;;;22.30;;
18592;SDS011;9426;54.118;17.948;2023-11-19T19:17:06;58.80;;;28.93;;
18592;SDS011;9426;54.118;17.948;2023-11-19T19:22:33;47.10;;;24.60;;
18592;SDS011;9426;54.118;17.948;2023-11-19T19:27:57;47.83;;;24.00;;
18592;SDS011;9426;54.118;17.948;2023-11-19T19:33:24;66.40;;;29.37;;
18592;SDS011;9426;54.118;17.948;2023-11-19T19:38:49;70.40;;;32.03;;
18592;SDS011;9426;54.118;17.948;2023-11-19T19:44:13;59.90;;;27.93;;
18592;SDS011;9426;54.118;17.948;2023-11-19T19:49:37;48.77;;;24.13;;
18592;SDS011;9426;54.118;17.948;2023-11-19T19:55:02;49.50;;;24.23;;
18592;SDS011;9426;54.118;17.948;2023-11-19T20:00:27;60.20;;;28.57;;
18592;SDS011;9426;54.118;17.948;2023-11-19T20:05:55;49.23;;;25.37;;
18592;SDS011;9426;54.118;17.948;2023-11-19T20:11:20;55.20;;;27.30;;
18592;SDS011;9426;54.118;17.948;2023-11-19T20:16:44;56.90;;;27.93;;
18592;SDS011;9426;54.118;17.948;2023-11-19T20:22:07;268.43;;;88.93;;
18592;SDS011;9426;54.118;17.948;2023-11-19T20:27:33;188.87;;;63.33;;
18592;SDS011;9426;54.118;17.948;2023-11-19T20:32:58;424.00;;;122.33;;
18592;SDS011;9426;54.118;17.948;2023-11-19T20:38:22;233.73;;;71.27;;
18592;SDS011;9426;54.118;17.948;2023-11-19T20:43:47;317.83;;;91.53;;
18592;SDS011;9426;54.118;17.948;2023-11-19T20:49:10;128.00;;;45.97;;
18592;SDS011;9426;54.118;17.948;2023-11-19T20:54:34;76.20;;;34.50;;
18592;SDS011;9426;54.118;17.948;2023-11-19T21:00:01;108.87;;;47.77;;
18592;SDS011;9426;54.118;17.948;2023-11-19T21:05:25;64.60;;;35.77;;
18592;SDS011;9426;54.118;17.948;2023-11-19T21:10:49;59.07;;;29.03;;
18592;SDS011;9426;54.118;17.948;2023-11-19T21:16:14;52.83;;;28.67;;
18592;SDS011;9426;54.118;17.948;2023-11-19T21:21:38;46.37;;;25.27;;
18592;SDS011;9426;54.118;17.948;2023-11-19T21:27:04;46.77;;;24.57;;
18592;SDS011;9426;54.118;17.948;2023-11-19T21:32:30;50.63;;;27.00;;
18592;SDS011;9426;54.118;17.948;2023-11-19T21:37:54;48.53;;;25.87;;
18592;SDS011;9426;54.118;17.948;2023-11-19T21:43:18;55.87;;;28.47;;
18592;SDS011;9426;54.118;17.948;2023-11-19T21:48:43;83.60;;;33.53;;
18592;SDS011;9426;54.118;17.948;2023-11-19T21:54:07;93.67;;;36.10;;
18592;SDS011;9426;54.118;17.948;2023-11-19T21:59:31;72.77;;;32.87;;
18592;SDS011;9426;54.118;17.948;2023-11-19T22:04:57;120.87;;;52.60;;
18592;SDS011;9426;54.118;17.948;2023-11-19T22:10:20;65.40;;;29.83;;
18592;SDS011;9426;54.118;17.948;2023-11-19T22:15:44;83.83;;;39.37;;
18592;SDS011;9426;54.118;17.948;2023-11-19T22:21:09;80.47;;;37.43;;
18592;SDS011;9426;54.118;17.948;2023-11-19T22:26:32;55.37;;;28.37;;
18592;SDS011;9426;54.118;17.948;2023-11-19T22:31:56;53.70;;;27.43;;
18592;SDS011;9426;54.118;17.948;2023-11-19T22:37:21;48.00;;;23.90;;
18592;SDS011;9426;54.118;17.948;2023-11-19T22:42:44;49.33;;;24.47;;
18592;SDS011;9426;54.118;17.948;2023-11-19T22:48:07;45.10;;;22.87;;
18592;SDS011;9426;54.118;17.948;2023-11-19T22:53:33;46.90;;;24.47;;
18592;SDS011;9426;54.118;17.948;2023-11-19T22:58:56;56.37;;;28.90;;
18592;SDS011;9426;54.118;17.948;2023-11-19T23:04:20;43.50;;;22.40;;
18592;SDS011;9426;54.118;17.948;2023-11-19T23:09:45;63.70;;;31.37;;
18592;SDS011;9426;54.118;17.948;2023-11-19T23:15:09;44.87;;;22.73;;
18592;SDS011;9426;54.118;17.948;2023-11-19T23:20:35;39.70;;;20.97;;
18592;SDS011;9426;54.118;17.948;2023-11-19T23:26:00;57.20;;;26.40;;
18592;SDS011;9426;54.118;17.948;2023-11-19T23:31:25;51.50;;;26.93;;
18592;SDS011;9426;54.118;17.948;2023-11-19T23:36:48;50.47;;;27.30;;
18592;SDS011;9426;54.118;17.948;2023-11-19T23:42:14;40.67;;;22.00;;
18592;SDS011;9426;54.118;17.948;2023-11-19T23:47:38;46.80;;;23.93;;
18592;SDS011;9426;54.118;17.948;2023-11-19T23:53:02;42.33;;;22.13;;
18592;SDS011;9426;54.118;17.948;2023-11-19T23:58:32;37.40;;;20.57;;
